Time;durP1;ratioP1;P1;durP2;ratioP2;P2;SDS_P1;SDS_P2;PMS_P1;PMS_P2;Temp;Humidity;BMP_temperature;BMP_pressure;BME280_temperature;BME280_humidity;BME280_pressure;Samples;Min_cycle;Max_cycle;Signal;HPM_P1;HPM_P2
2021/12/05 00:24:10;;;;;;;15.50;10.90;;;;;;;;;;101295;1329;64201;-33
2021/12/05 00:26:42;;;;;;;14.60;9.80;;;;;;;;;;101131;1332;64130;-33
2021/12/05 01:02:44;;;;;;;13.50;9.70;;;;;;;;;;101248;1328;64178;-28
2021/12/05 01:10:35;;;;;;;11.70;9.40;;;;;;;;;;101266;1329;64018;-40
2021/12/05 01:15:30;;;;;;;14.70;9.90;;;;;;;;;;101289;1329;64134;-27
2021/12/05 01:18:05;;;;;;;12.10;8.70;;;;;;;;;;101315;1335;64101;-28
2021/12/05 01:20:34;;;;;;;13.60;9.40;;;;;;;;;;101254;1329;64009;-32
2021/12/05 01:23:16;;;;;;;13.10;9.30;;;;;;;;;;101143;1332;64897;-32
2021/12/05 01:25:56;;;;;;;14.10;10.10;;;;;;;;;;101297;1333;64039;-28
2021/12/05 01:31:31;;;;;;;13.00;9.10;;;;;;;;;;101264;1328;65565;-28
2021/12/05 01:39:47;;;;;;;11.80;8.60;;;;;;;;;;100762;1335;64078;-28
2021/12/05 01:48:52;;;;;;;12.50;9.50;;;;;;;;;;100900;1332;64088;-32
2021/12/05 01:59:33;;;;;;;13.40;9.40;;;;;;;;;;101166;1329;65277;-32
2021/12/05 02:40:45;;;;;;;13.50;9.20;;;;;;;;;;100761;1333;64155;-31
2021/12/05 02:43:25;;;;;;;11.70;9.20;;;;;;;;;;100781;1339;64084;-28
2021/12/05 02:45:59;;;;;;;12.10;9.10;;;;;;;;;;100762;1335;64050;-31
2021/12/05 02:48:31;;;;;;;12.00;9.10;;;;;;;;;;100648;1335;64063;-31
2021/12/05 02:51:00;;;;;;;13.30;9.30;;;;;;;;;;101041;1329;64115;-35
2021/12/05 02:53:43;;;;;;;11.40;8.70;;;;;;;;;;101219;1339;63997;-31
2021/12/05 02:56:15;;;;;;;11.90;8.90;;;;;;;;;;101173;1329;64007;-28
2021/12/05 02:58:51;;;;;;;11.60;8.20;;;;;;;;;;101156;1329;64069;-27
2021/12/05 03:01:30;;;;;;;12.80;8.60;;;;;;;;;;101161;1336;64129;-32
2021/12/05 03:04:01;;;;;;;12.20;8.90;;;;;;;;;;101209;1326;64212;-31
2021/12/05 03:06:31;;;;;;;11.10;8.00;;;;;;;;;;101230;1338;64010;-27
2021/12/05 03:09:13;;;;;;;12.50;8.90;;;;;;;;;;101189;1328;64083;-27
2021/12/05 03:11:40;;;;;;;12.60;8.90;;;;;;;;;;101222;1329;64091;-31
2021/12/05 03:14:10;;;;;;;13.40;9.50;;;;;;;;;;101279;1329;64145;-31
2021/12/05 03:16:40;;;;;;;12.60;8.90;;;;;;;;;;101240;1336;64010;-32
2021/12/05 03:19:11;;;;;;;12.80;8.90;;;;;;;;;;101273;1328;64097;-32
2021/12/05 03:21:42;;;;;;;11.40;8.30;;;;;;;;;;101275;1329;64172;-32
2021/12/05 03:24:09;;;;;;;11.50;8.40;;;;;;;;;;101263;1340;64029;-33
2021/12/05 03:26:41;;;;;;;11.60;9.10;;;;;;;;;;101170;1329;64097;-31
2021/12/05 03:29:12;;;;;;;12.20;8.80;;;;;;;;;;101127;1342;63979;-31
2021/12/05 03:31:39;;;;;;;12.90;8.80;;;;;;;;;;101268;1329;64105;-32
2021/12/05 03:34:11;;;;;;;11.80;8.90;;;;;;;;;;101278;1329;64014;-33
2021/12/05 03:36:40;;;;;;;11.90;9.00;;;;;;;;;;101270;1329;64122;-28
2021/12/05 03:39:10;;;;;;;12.70;9.40;;;;;;;;;;101090;1329;64047;-27
2021/12/05 03:41:39;;;;;;;11.30;9.30;;;;;;;;;;101206;1342;64090;-32
2021/12/05 03:44:07;;;;;;;12.80;9.30;;;;;;;;;;101274;1329;64657;-32
2021/12/05 03:46:35;;;;;;;11.80;8.70;;;;;;;;;;101272;1337;64114;-28
2021/12/05 03:49:08;;;;;;;13.00;8.50;;;;;;;;;;101263;1329;64094;-28
2021/12/05 03:51:35;;;;;;;;;;;;;;;;;;101291;1336;64176;-32
2021/12/05 03:54:05;;;;;;;12.10;8.70;;;;;;;;;;101276;1329;64136;-32
2021/12/05 03:56:36;;;;;;;11.90;8.20;;;;;;;;;;101289;1336;63995;-28
2021/12/05 03:59:08;;;;;;;12.90;8.70;;;;;;;;;;101117;1332;64179;-28
2021/12/05 04:01:35;;;;;;;12.10;8.60;;;;;;;;;;101243;1336;63971;-32
2021/12/05 04:04:07;;;;;;;11.50;9.00;;;;;;;;;;101274;1329;64096;-32
2021/12/05 04:06:34;;;;;;;13.10;8.80;;;;;;;;;;101329;1329;64484;-31
2021/12/05 04:09:06;;;;;;;11.40;8.20;;;;;;;;;;101261;1329;64190;-27
2021/12/05 04:11:37;;;;;;;11.10;8.40;;;;;;;;;;101199;1332;64200;-28
2021/12/05 04:14:08;;;;;;;13.00;8.80;;;;;;;;;;101269;1329;64177;-28
2021/12/05 04:16:39;;;;;;;12.60;9.00;;;;;;;;;;101294;1329;64138;-32
2021/12/05 04:19:09;;;;;;;12.40;8.60;;;;;;;;;;101262;1329;63975;-33
2021/12/05 04:21:37;;;;;;;11.90;9.20;;;;;;;;;;101302;1329;64130;-32
2021/12/05 04:24:08;;;;;;;12.20;8.90;;;;;;;;;;101165;1332;64019;-32
2021/12/05 04:26:35;;;;;;;11.80;8.80;;;;;;;;;;101300;1339;63971;-28
2021/12/05 04:29:06;;;;;;;11.60;9.00;;;;;;;;;;101259;1335;64027;-27
2021/12/05 04:31:37;;;;;;;13.10;9.10;;;;;;;;;;101270;1329;64041;-27
2021/12/05 04:34:04;;;;;;;12.00;8.80;;;;;;;;;;101275;1329;64118;-27
2021/12/05 04:36:31;;;;;;;11.00;8.10;;;;;;;;;;101154;1332;64137;-26
2021/12/05 04:39:01;;;;;;;11.70;8.90;;;;;;;;;;101273;1332;64157;-27
2021/12/05 04:41:31;;;;;;;11.40;8.80;;;;;;;;;;101218;1329;64136;-29
2021/12/05 04:43:59;;;;;;;11.10;8.30;;;;;;;;;;101295;1327;64112;-29
2021/12/05 04:46:29;;;;;;;11.50;7.90;;;;;;;;;;101269;1329;63985;-32
2021/12/05 04:49:00;;;;;;;10.70;8.10;;;;;;;;;;101253;1327;64087;-32
2021/12/05 04:51:32;;;;;;;11.40;8.20;;;;;;;;;;101222;1329;64024;-32
2021/12/05 04:53:59;;;;;;;11.80;8.40;;;;;;;;;;101279;1329;64124;-32
2021/12/05 04:56:26;;;;;;;10.70;8.50;;;;;;;;;;101255;1329;64143;-28
2021/12/05 04:58:57;;;;;;;11.50;8.60;;;;;;;;;;101269;1329;64105;-26
2021/12/05 05:01:24;;;;;;;10.60;8.30;;;;;;;;;;101261;1329;64149;-32
2021/12/05 05:03:54;;;;;;;12.70;8.50;;;;;;;;;;101274;1329;64252;-37
2021/12/05 05:06:21;;;;;;;10.10;8.50;;;;;;;;;;101276;1342;64115;-29
2021/12/05 05:08:53;;;;;;;11.90;8.90;;;;;;;;;;101249;1335;64008;-27
2021/12/05 05:11:24;;;;;;;11.30;8.20;;;;;;;;;;101271;1329;64136;-31
2021/12/05 05:13:55;;;;;;;10.40;7.60;;;;;;;;;;101256;1336;64001;-31
2021/12/05 05:16:24;;;;;;;11.60;8.00;;;;;;;;;;101257;1329;64216;-26
2021/12/05 05:18:58;;;;;;;10.80;8.70;;;;;;;;;;101260;1329;64085;-27
2021/12/05 05:21:47;;;;;;;11.20;8.10;;;;;;;;;;101241;1329;64133;-27
2021/12/05 05:46:37;;;;;;;10.70;7.90;;;;;;;;;;100739;1333;64022;-32
2021/12/05 05:49:16;;;;;;;9.40;6.90;;;;;;;;;;100998;1342;64848;-30
2021/12/05 05:51:45;;;;;;;10.60;7.40;;;;;;;;;;101249;1326;64259;-26
2021/12/05 05:54:12;;;;;;;13.90;8.10;;;;;;;;;;101241;1333;64135;-26
2021/12/05 05:56:45;;;;;;;10.60;7.80;;;;;;;;;;101333;1328;64108;-26
2021/12/05 05:59:21;;;;;;;13.10;8.60;;;;;;;;;;101258;1340;64127;-27
2021/12/05 06:04:36;;;;;;;10.50;7.50;;;;;;;;;;101097;1332;64198;-27
2021/12/05 06:07:08;;;;;;;10.90;8.00;;;;;;;;;;101281;1329;64036;-28
2021/12/05 06:09:37;;;;;;;11.20;8.40;;;;;;;;;;101294;1339;64001;-30
2021/12/05 06:12:06;;;;;;;9.90;7.60;;;;;;;;;;101252;1327;63992;-32
2021/12/05 06:14:33;;;;;;;12.30;7.80;;;;;;;;;;101261;1328;64149;-28
2021/12/05 06:17:00;;;;;;;10.30;7.80;;;;;;;;;;101252;1330;64027;-29
2021/12/05 06:19:27;;;;;;;11.10;7.90;;;;;;;;;;101282;1333;64124;-29
2021/12/05 06:21:57;;;;;;;11.00;8.20;;;;;;;;;;101239;1329;64152;-32
2021/12/05 06:24:27;;;;;;;11.00;7.80;;;;;;;;;;101204;1330;64162;-29
2021/12/05 06:26:59;;;;;;;10.30;7.50;;;;;;;;;;101279;1329;64128;-32
2021/12/05 06:29:32;;;;;;;10.60;7.80;;;;;;;;;;101282;1329;64012;-26
2021/12/05 06:32:34;;;;;;;9.80;7.50;;;;;;;;;;101248;1341;64657;-26
2021/12/05 06:42:52;;;;;;;10.20;7.30;;;;;;;;;;101272;1329;64101;-31
2021/12/05 06:48:11;;;;;;;10.20;8.10;;;;;;;;;;101251;1328;64137;-28
2021/12/05 06:50:41;;;;;;;10.70;8.00;;;;;;;;;;101251;1329;64233;-26
2021/12/05 06:53:11;;;;;;;10.30;7.90;;;;;;;;;;101270;1329;64118;-28
2021/12/05 06:55:41;;;;;;;11.60;7.60;;;;;;;;;;101287;1337;64157;-27
2021/12/05 06:58:08;;;;;;;10.80;8.10;;;;;;;;;;101283;1340;64008;-26
2021/12/05 07:00:38;;;;;;;11.30;8.60;;;;;;;;;;101274;1329;64194;-31
2021/12/05 07:03:09;;;;;;;11.20;8.10;;;;;;;;;;101263;1329;64000;-31
2021/12/05 07:08:16;;;;;;;12.50;8.20;;;;;;;;;;101274;1329;64010;-32
2021/12/05 07:11:02;;;;;;;11.00;8.10;;;;;;;;;;101259;1329;64256;-32
2021/12/05 07:18:43;;;;;;;;;;;;;;;;;;101305;1335;64002;-31
2021/12/05 07:21:28;;;;;;;10.80;7.20;;;;;;;;;;101293;1341;64002;-27
2021/12/05 07:26:52;;;;;;;10.50;8.50;;;;;;;;;;101256;1333;64162;-31
2021/12/05 07:40:34;;;;;;;10.90;8.80;;;;;;;;;;101164;1331;63256;-27
2021/12/05 07:43:08;;;;;;;12.10;8.60;;;;;;;;;;101261;1327;64116;-27
2021/12/05 07:45:43;;;;;;;11.50;8.60;;;;;;;;;;101122;1332;64078;-32
2021/12/05 07:48:21;;;;;;;10.80;7.80;;;;;;;;;;101139;1332;64046;-32
2021/12/05 07:50:58;;;;;;;10.70;8.50;;;;;;;;;;101237;1329;64123;-32
2021/12/05 07:53:37;;;;;;;11.30;8.60;;;;;;;;;;101273;1329;64729;-32
2021/12/05 07:56:12;;;;;;;11.70;8.70;;;;;;;;;;101239;1329;64009;-27
2021/12/05 07:58:57;;;;;;;10.50;7.90;;;;;;;;;;101237;1329;64001;-27
2021/12/05 08:15:30;;;;;;;12.30;8.60;;;;;;;;;;101259;1335;64226;-27
2021/12/05 08:18:00;;;;;;;11.20;8.70;;;;;;;;;;101255;1333;63968;-27
2021/12/05 08:20:33;;;;;;;11.80;8.40;;;;;;;;;;101255;1329;64148;-34
2021/12/05 08:23:04;;;;;;;11.20;8.20;;;;;;;;;;101285;1340;64101;-31
2021/12/05 08:25:32;;;;;;;11.80;8.80;;;;;;;;;;101258;1329;64116;-32
2021/12/05 08:30:45;;;;;;;;;;;;;;;;;;101285;1330;63905;-31
2021/12/05 08:33:32;;;;;;;12.80;9.10;;;;;;;;;;101261;1329;64163;-32
2021/12/05 08:36:36;;;;;;;11.80;8.80;;;;;;;;;;101299;1327;64181;-32
2021/12/05 09:21:11;;;;;;;11.50;8.20;;;;;;;;;;101275;1329;64051;-31
2021/12/05 10:01:54;;;;;;;15.40;10.30;;;;;;;;;;101279;1329;64125;-32
2021/12/05 10:07:22;;;;;;;15.00;10.50;;;;;;;;;;101253;1335;63681;-33
2021/12/05 10:15:39;;;;;;;16.80;11.10;;;;;;;;;;101274;1329;64101;-27
2021/12/05 10:38:04;;;;;;;17.60;12.10;;;;;;;;;;100563;1335;64143;-29
2021/12/05 10:40:42;;;;;;;15.50;12.00;;;;;;;;;;101292;1336;63997;-28
2021/12/05 10:43:18;;;;;;;16.50;11.70;;;;;;;;;;101283;1329;64079;-31
2021/12/05 10:45:50;;;;;;;17.30;12.80;;;;;;;;;;101266;1335;64195;-27
2021/12/05 10:48:28;;;;;;;18.70;12.60;;;;;;;;;;101179;1332;64013;-27
2021/12/05 10:50:59;;;;;;;16.10;12.40;;;;;;;;;;101291;1329;64222;-27
2021/12/05 10:53:32;;;;;;;18.20;12.20;;;;;;;;;;101257;1330;63972;-32
2021/12/05 10:56:11;;;;;;;16.30;12.40;;;;;;;;;;101113;1332;64076;-32
2021/12/05 10:58:45;;;;;;;16.30;12.20;;;;;;;;;;101085;1338;64117;-27
2021/12/05 11:01:15;;;;;;;16.20;12.50;;;;;;;;;;101126;1332;64086;-28
2021/12/05 11:03:45;;;;;;;14.80;12.50;;;;;;;;;;101250;1335;64080;-27
2021/12/05 11:06:25;;;;;;;16.20;12.60;;;;;;;;;;101267;1330;64119;-32
2021/12/05 11:09:06;;;;;;;15.60;11.60;;;;;;;;;;101286;1333;64070;-28
2021/12/05 11:11:37;;;;;;;16.50;12.30;;;;;;;;;;101252;1329;63992;-26
2021/12/05 11:14:10;;;;;;;16.30;12.70;;;;;;;;;;101267;1330;64067;-31
2021/12/05 11:16:42;;;;;;;17.20;12.80;;;;;;;;;;101275;1338;64094;-32
2021/12/05 11:19:15;;;;;;;18.00;12.80;;;;;;;;;;101318;1330;63967;-27
2021/12/05 11:21:50;;;;;;;16.80;12.00;;;;;;;;;;101348;1344;64108;-32
2021/12/05 11:24:35;;;;;;;17.50;12.80;;;;;;;;;;101129;1329;64324;-31
2021/12/05 11:27:10;;;;;;;17.40;13.50;;;;;;;;;;101284;1344;63989;-27
2021/12/05 11:29:49;;;;;;;16.40;12.40;;;;;;;;;;101061;1340;64159;-28
2021/12/05 11:32:19;;;;;;;16.50;12.30;;;;;;;;;;101151;1338;64099;-32
2021/12/05 11:34:48;;;;;;;16.10;12.80;;;;;;;;;;101283;1344;64184;-35
2021/12/05 11:37:16;;;;;;;15.60;11.80;;;;;;;;;;101176;1329;64211;-32
2021/12/05 11:39:48;;;;;;;16.10;12.10;;;;;;;;;;101115;1342;64233;-28
2021/12/05 11:42:17;;;;;;;15.90;11.50;;;;;;;;;;101261;1329;64053;-33
2021/12/05 11:44:52;;;;;;;16.40;12.80;;;;;;;;;;101310;1329;64155;-31
2021/12/05 11:47:21;;;;;;;16.00;12.70;;;;;;;;;;101316;1329;64005;-31
2021/12/05 11:49:52;;;;;;;16.90;11.80;;;;;;;;;;101180;1338;64069;-29
2021/12/05 11:52:25;;;;;;;15.30;12.20;;;;;;;;;;101265;1329;64014;-27
2021/12/05 11:54:58;;;;;;;16.50;12.40;;;;;;;;;;101263;1340;63966;-32
2021/12/05 11:57:29;;;;;;;17.50;12.30;;;;;;;;;;101253;1329;64531;-31
2021/12/05 12:00:04;;;;;;;16.40;13.40;;;;;;;;;;101298;1329;63984;-27
2021/12/05 12:02:36;;;;;;;15.70;12.20;;;;;;;;;;101336;1329;64012;-32
2021/12/05 12:05:04;;;;;;;17.80;12.90;;;;;;;;;;101290;1342;64078;-27
2021/12/05 12:07:54;;;;;;;15.00;11.80;;;;;;;;;;101313;1329;64773;-27
2021/12/05 12:10:27;;;;;;;16.00;12.00;;;;;;;;;;101280;1329;64149;-29
2021/12/05 12:12:57;;;;;;;16.80;12.40;;;;;;;;;;101272;1329;64042;-31
2021/12/05 12:15:28;;;;;;;17.20;13.00;;;;;;;;;;101235;1329;64101;-32
2021/12/05 12:18:07;;;;;;;17.40;12.50;;;;;;;;;;101280;1328;64029;-32
2021/12/05 12:20:39;;;;;;;17.60;12.70;;;;;;;;;;101125;1344;64067;-27
2021/12/05 12:23:09;;;;;;;16.50;12.80;;;;;;;;;;101294;1341;64086;-27
2021/12/05 12:25:39;;;;;;;18.80;13.40;;;;;;;;;;101118;1337;64226;-38
2021/12/05 12:28:07;;;;;;;19.80;13.40;;;;;;;;;;101275;1342;64013;-32
2021/12/05 12:30:40;;;;;;;27.50;20.80;;;;;;;;;;101304;1341;64219;-28
2021/12/05 12:33:10;;;;;;;28.20;18.80;;;;;;;;;;101138;1338;64340;-32
2021/12/05 12:35:44;;;;;;;28.40;20.40;;;;;;;;;;101072;1345;64107;-32
2021/12/05 12:38:12;;;;;;;;;;;;;;;;;;101343;1342;64013;-33
2021/12/05 12:40:43;;;;;;;25.30;16.10;;;;;;;;;;101193;1336;64159;-28
2021/12/05 12:43:29;;;;;;;30.30;20.00;;;;;;;;;;101141;1344;64008;-28
2021/12/05 12:46:13;;;;;;;32.40;21.50;;;;;;;;;;101329;1315;64375;-28
2021/12/05 12:48:44;;;;;;;32.10;22.50;;;;;;;;;;101268;1342;64108;-26
2021/12/05 12:51:30;;;;;;;30.30;20.40;;;;;;;;;;101129;1343;64204;-28
2021/12/05 12:54:02;;;;;;;35.70;22.10;;;;;;;;;;101192;1344;64117;-28
2021/12/05 12:56:30;;;;;;;24.70;14.90;;;;;;;;;;101218;1343;64209;-27
2021/12/05 12:59:00;;;;;;;25.10;15.30;;;;;;;;;;101216;1342;64083;-27
2021/12/05 13:12:50;;;;;;;20.10;13.40;;;;;;;;;;101216;1342;64204;-26
2021/12/05 13:15:59;;;;;;;20.80;13.10;;;;;;;;;;101157;1343;63996;-28
2021/12/05 13:18:30;;;;;;;21.00;14.40;;;;;;;;;;100192;1338;64567;-29
2021/12/05 13:21:00;;;;;;;20.20;14.20;;;;;;;;;;100355;1344;64223;-29
2021/12/05 13:23:30;;;;;;;23.30;14.30;;;;;;;;;;100761;1344;65857;-30
2021/12/05 13:25:58;;;;;;;20.10;13.50;;;;;;;;;;101257;1344;64005;-30
2021/12/05 13:28:29;;;;;;;22.80;14.60;;;;;;;;;;101214;1343;64197;-27
2021/12/05 13:30:56;;;;;;;20.70;14.80;;;;;;;;;;101246;1344;63992;-30
2021/12/05 13:33:24;;;;;;;20.90;14.00;;;;;;;;;;101267;1342;64046;-30
2021/12/05 13:35:58;;;;;;;19.80;12.90;;;;;;;;;;101271;1329;63968;-29
2021/12/05 13:38:41;;;;;;;19.80;13.30;;;;;;;;;;101250;1328;64127;-27
2021/12/05 13:41:12;;;;;;;19.80;13.50;;;;;;;;;;101268;1336;64135;-28
2021/12/05 13:43:40;;;;;;;19.60;12.90;;;;;;;;;;101266;1342;64041;-25
2021/12/05 13:46:26;;;;;;;21.40;13.60;;;;;;;;;;101277;1343;64427;-26
2021/12/05 13:48:53;;;;;;;19.90;13.60;;;;;;;;;;101219;1342;64136;-30
2021/12/05 13:51:23;;;;;;;23.80;13.50;;;;;;;;;;101207;1343;64092;-26
2021/12/05 13:53:51;;;;;;;18.40;12.80;;;;;;;;;;101185;1338;64216;-29
2021/12/05 13:56:24;;;;;;;22.90;13.50;;;;;;;;;;101232;1343;64146;-30
2021/12/05 13:58:53;;;;;;;18.70;13.20;;;;;;;;;;101203;1344;64098;-29
2021/12/05 14:01:32;;;;;;;18.20;12.90;;;;;;;;;;101218;1344;65228;-26
2021/12/05 14:04:08;;;;;;;18.30;12.90;;;;;;;;;;101196;1343;64056;-25
2021/12/05 14:07:06;;;;;;;20.70;13.50;;;;;;;;;;101043;1341;64055;-28
2021/12/05 14:09:35;;;;;;;22.00;13.70;;;;;;;;;;101003;1344;64025;-30
2021/12/05 14:12:27;;;;;;;19.20;13.90;;;;;;;;;;101182;1336;65722;-28
2021/12/05 14:14:54;;;;;;;20.90;14.30;;;;;;;;;;101193;1343;64019;-27
2021/12/05 14:17:33;;;;;;;22.90;14.40;;;;;;;;;;101181;1342;64089;-29
2021/12/05 14:19:59;;;;;;;18.00;12.90;;;;;;;;;;101175;1344;64125;-29
2021/12/05 14:22:29;;;;;;;17.80;12.40;;;;;;;;;;101234;1329;64127;-27
2021/12/05 14:24:59;;;;;;;19.10;13.30;;;;;;;;;;101269;1343;63998;-28
2021/12/05 14:27:34;;;;;;;17.50;12.70;;;;;;;;;;101269;1342;63983;-25
2021/12/05 14:30:03;;;;;;;18.40;13.20;;;;;;;;;;101278;1342;64149;-30
2021/12/05 14:32:32;;;;;;;16.60;12.60;;;;;;;;;;101283;1343;64169;-28
2021/12/05 14:35:07;;;;;;;17.70;12.10;;;;;;;;;;101095;1330;64096;-37
2021/12/05 14:37:35;;;;;;;16.00;11.60;;;;;;;;;;101323;1342;64085;-29
2021/12/05 14:40:19;;;;;;;15.80;12.40;;;;;;;;;;101183;1332;64153;-30
2021/12/05 14:42:47;;;;;;;19.00;13.30;;;;;;;;;;101166;1332;64040;-26
2021/12/05 14:45:16;;;;;;;18.40;13.10;;;;;;;;;;101123;1344;64138;-29
2021/12/05 14:47:44;;;;;;;19.60;13.60;;;;;;;;;;101084;1338;64105;-28
2021/12/05 14:50:20;;;;;;;18.10;12.30;;;;;;;;;;100777;1333;64023;-27
2021/12/05 14:52:50;;;;;;;17.90;12.00;;;;;;;;;;101128;1346;63778;-27
2021/12/05 14:55:19;;;;;;;18.90;13.30;;;;;;;;;;101151;1344;64673;-27
2021/12/05 14:57:47;;;;;;;17.90;12.30;;;;;;;;;;101106;1332;64068;-29
2021/12/05 15:00:24;;;;;;;19.20;14.30;;;;;;;;;;101083;1339;64325;-30
2021/12/05 15:03:03;;;;;;;18.10;12.80;;;;;;;;;;101112;1330;64057;-29
2021/12/05 15:05:30;;;;;;;17.10;12.60;;;;;;;;;;101134;1344;64046;-26
2021/12/05 15:08:01;;;;;;;17.90;12.70;;;;;;;;;;101117;1338;63999;-28
2021/12/05 15:10:28;;;;;;;18.00;13.20;;;;;;;;;;101076;1343;64341;-30
2021/12/05 15:12:55;;;;;;;18.00;13.10;;;;;;;;;;101100;1331;64094;-31
2021/12/05 15:15:23;;;;;;;20.00;13.20;;;;;;;;;;101084;1332;64234;-29
2021/12/05 15:17:51;;;;;;;19.00;12.90;;;;;;;;;;101125;1332;64108;-27
2021/12/05 15:20:20;;;;;;;18.30;13.20;;;;;;;;;;101107;1344;64140;-34
2021/12/05 15:22:49;;;;;;;19.60;13.50;;;;;;;;;;101060;1344;64088;-26
2021/12/05 15:25:19;;;;;;;18.70;13.60;;;;;;;;;;101275;1335;64083;-26
2021/12/05 15:27:47;;;;;;;20.60;13.80;;;;;;;;;;101308;1330;64126;-30
2021/12/05 15:30:19;;;;;;;19.60;14.50;;;;;;;;;;101225;1329;64149;-27
2021/12/05 15:32:52;;;;;;;19.60;14.40;;;;;;;;;;101283;1337;64119;-32
2021/12/05 15:35:19;;;;;;;;;;;;;;;;;;101124;1332;64105;-29
2021/12/05 15:37:48;;;;;;;19.60;13.70;;;;;;;;;;101283;1328;64124;-29
2021/12/05 15:40:16;;;;;;;20.00;14.00;;;;;;;;;;101272;1342;63985;-30
2021/12/05 15:42:43;;;;;;;18.10;13.00;;;;;;;;;;101278;1336;63986;-28
2021/12/05 15:45:11;;;;;;;19.50;13.70;;;;;;;;;;101089;1332;64086;-28
2021/12/05 15:47:39;;;;;;;18.70;13.80;;;;;;;;;;101170;1329;64099;-28
2021/12/05 15:50:09;;;;;;;21.60;13.70;;;;;;;;;;101204;1329;64149;-29
2021/12/05 15:52:37;;;;;;;19.90;14.00;;;;;;;;;;101161;1332;65625;-28
2021/12/05 15:55:07;;;;;;;18.80;13.90;;;;;;;;;;101332;1329;64126;-30
2021/12/05 15:57:36;;;;;;;21.30;13.10;;;;;;;;;;101297;1342;64116;-28
2021/12/05 16:00:11;;;;;;;19.40;13.20;;;;;;;;;;101261;1329;64033;-27
2021/12/05 16:02:41;;;;;;;19.90;14.10;;;;;;;;;;101271;1329;64335;-28
2021/12/05 16:05:20;;;;;;;17.70;13.70;;;;;;;;;;101263;1329;64836;-28
2021/12/05 16:07:48;;;;;;;18.70;13.00;;;;;;;;;;101293;1325;64061;-28
2021/12/05 16:10:17;;;;;;;20.10;14.30;;;;;;;;;;100706;1330;831879;-28
2021/12/05 16:12:48;;;;;;;16.10;12.50;;;;;;;;;;100816;1335;64150;-28
2021/12/05 16:15:17;;;;;;;18.30;13.60;;;;;;;;;;101091;1334;64014;-27
2021/12/05 16:17:59;;;;;;;18.30;13.50;;;;;;;;;;100933;1343;64124;-28
2021/12/05 16:20:44;;;;;;;20.40;14.00;;;;;;;;;;100899;1340;65090;-28
2021/12/05 16:23:14;;;;;;;19.30;14.40;;;;;;;;;;101204;1339;64080;-32
2021/12/05 16:25:44;;;;;;;18.80;13.40;;;;;;;;;;101079;1344;64085;-28
2021/12/05 16:28:13;;;;;;;17.20;12.50;;;;;;;;;;101210;1338;64094;-28
2021/12/05 16:30:47;;;;;;;16.90;13.30;;;;;;;;;;101177;1329;63990;-30
2021/12/05 16:33:15;;;;;;;17.40;12.80;;;;;;;;;;101185;1342;63985;-28
2021/12/05 16:35:46;;;;;;;18.10;13.30;;;;;;;;;;101159;1343;64117;-28
2021/12/05 16:38:22;;;;;;;18.40;13.40;;;;;;;;;;101156;1339;64111;-28
2021/12/05 16:40:52;;;;;;;16.20;12.80;;;;;;;;;;101192;1329;64815;-34
2021/12/05 16:43:19;;;;;;;17.40;13.20;;;;;;;;;;101181;1329;63975;-29
2021/12/05 16:45:46;;;;;;;17.50;13.80;;;;;;;;;;101187;1329;64149;-28
2021/12/05 16:48:16;;;;;;;16.80;12.60;;;;;;;;;;101175;1329;64015;-28
2021/12/05 16:50:43;;;;;;;17.00;13.20;;;;;;;;;;101166;1336;64249;-28
2021/12/05 16:53:13;;;;;;;17.60;12.00;;;;;;;;;;101176;1328;65214;-27
2021/12/05 16:55:44;;;;;;;17.80;12.90;;;;;;;;;;101186;1329;64107;-28
2021/12/05 16:58:17;;;;;;;17.30;12.10;;;;;;;;;;101181;1329;64640;-27
2021/12/05 17:00:49;;;;;;;18.40;12.70;;;;;;;;;;101177;1329;64145;-27
2021/12/05 17:03:18;;;;;;;18.40;13.10;;;;;;;;;;101166;1329;64122;-27
2021/12/05 17:05:48;;;;;;;17.80;12.70;;;;;;;;;;101065;1332;63973;-28
2021/12/05 17:08:16;;;;;;;16.30;11.60;;;;;;;;;;101236;1338;64730;-28
2021/12/05 17:10:45;;;;;;;16.80;12.50;;;;;;;;;;101220;1337;64115;-28
2021/12/05 17:13:21;;;;;;;17.40;12.10;;;;;;;;;;101208;1332;65205;-28
2021/12/05 17:15:54;;;;;;;16.00;12.20;;;;;;;;;;101188;1329;64218;-28
2021/12/05 17:18:30;;;;;;;17.60;12.10;;;;;;;;;;101216;1339;63998;-27
2021/12/05 17:21:03;;;;;;;16.20;12.30;;;;;;;;;;101163;1329;64165;-28
2021/12/05 17:23:36;;;;;;;17.50;11.80;;;;;;;;;;101300;1329;64507;-28
2021/12/05 17:26:08;;;;;;;16.50;12.20;;;;;;;;;;101283;1327;64094;-28
2021/12/05 17:28:47;;;;;;;15.00;11.50;;;;;;;;;;101268;1340;64012;-29
2021/12/05 17:31:15;;;;;;;16.20;12.10;;;;;;;;;;101238;1328;64129;-29
2021/12/05 17:33:47;;;;;;;16.90;11.70;;;;;;;;;;101272;1329;64126;-30
2021/12/05 17:36:22;;;;;;;15.80;11.60;;;;;;;;;;101254;1340;64117;-28
2021/12/05 17:38:50;;;;;;;15.20;11.70;;;;;;;;;;101074;1332;64117;-45
2021/12/05 17:41:18;;;;;;;15.10;11.70;;;;;;;;;;101273;1329;64130;-28
2021/12/05 17:43:45;;;;;;;16.60;11.30;;;;;;;;;;101284;1343;64092;-27
2021/12/05 17:46:12;;;;;;;14.90;11.50;;;;;;;;;;101193;1336;64036;-27
2021/12/05 17:48:39;;;;;;;15.30;11.30;;;;;;;;;;101275;1329;64008;-28
2021/12/05 17:51:07;;;;;;;15.60;11.00;;;;;;;;;;101258;1330;64133;-28
2021/12/05 17:53:36;;;;;;;15.30;11.60;;;;;;;;;;101265;1330;64168;-28
2021/12/05 17:56:13;;;;;;;16.30;11.90;;;;;;;;;;101307;1335;64150;-28
2021/12/05 18:03:55;;;;;;;15.10;10.80;;;;;;;;;;101267;1328;64224;-27
2021/12/05 18:06:23;;;;;;;15.30;11.30;;;;;;;;;;101274;1329;64169;-28
2021/12/05 18:08:50;;;;;;;15.10;10.60;;;;;;;;;;101284;1329;64049;-28
2021/12/05 18:11:23;;;;;;;15.00;10.60;;;;;;;;;;101100;1342;64252;-28
2021/12/05 18:13:54;;;;;;;14.30;10.20;;;;;;;;;;101288;1335;64071;-27
2021/12/05 18:16:25;;;;;;;14.90;10.70;;;;;;;;;;101320;1341;63266;-28
2021/12/05 18:18:53;;;;;;;14.00;10.30;;;;;;;;;;101094;1327;64060;-28
2021/12/05 18:21:21;;;;;;;15.70;10.80;;;;;;;;;;101093;1332;64153;-27
2021/12/05 18:23:48;;;;;;;13.90;10.40;;;;;;;;;;101160;1329;64134;-28
2021/12/05 18:26:16;;;;;;;14.00;10.80;;;;;;;;;;101192;1329;64150;-48
2021/12/05 18:28:46;;;;;;;15.40;10.80;;;;;;;;;;101067;1330;64044;-34
2021/12/05 18:31:17;;;;;;;14.90;11.00;;;;;;;;;;101195;1329;64120;-35
2021/12/05 18:33:46;;;;;;;14.40;10.10;;;;;;;;;;101207;1339;64796;-28
2021/12/05 18:36:13;;;;;;;14.50;10.30;;;;;;;;;;101065;1332;64326;-29
2021/12/05 18:38:40;;;;;;;15.90;10.90;;;;;;;;;;101195;1338;64165;-28
2021/12/05 18:41:10;;;;;;;15.40;10.40;;;;;;;;;;101014;1338;64625;-27
2021/12/05 18:43:39;;;;;;;14.60;10.70;;;;;;;;;;101170;1328;64146;-28
2021/12/05 18:46:07;;;;;;;14.20;10.50;;;;;;;;;;101210;1339;63921;-29
2021/12/05 18:48:35;;;;;;;14.70;10.70;;;;;;;;;;101217;1338;64021;-27
2021/12/05 18:51:02;;;;;;;14.40;10.80;;;;;;;;;;101117;1336;65203;-28
2021/12/05 18:53:29;;;;;;;15.10;11.70;;;;;;;;;;101076;1332;64101;-29
2021/12/05 18:55:57;;;;;;;13.70;10.20;;;;;;;;;;101089;1331;64181;-25
2021/12/05 18:58:26;;;;;;;14.40;10.20;;;;;;;;;;101190;1332;64672;-26
2021/12/05 19:06:46;;;;;;;14.50;10.30;;;;;;;;;;101202;1329;64217;-27
2021/12/05 19:09:24;;;;;;;14.50;10.40;;;;;;;;;;101216;1332;64037;-27
2021/12/05 19:11:58;;;;;;;14.50;10.40;;;;;;;;;;101205;1328;64257;-31
2021/12/05 19:14:25;;;;;;;12.80;10.00;;;;;;;;;;101121;1344;64024;-31
2021/12/05 19:16:55;;;;;;;12.60;10.10;;;;;;;;;;101127;1332;64248;-31
2021/12/05 19:19:26;;;;;;;14.10;10.50;;;;;;;;;;101186;1329;64024;-26
2021/12/05 19:21:53;;;;;;;14.30;10.50;;;;;;;;;;101207;1329;64139;-26
2021/12/05 19:24:23;;;;;;;16.40;10.40;;;;;;;;;;101198;1332;64166;-29
2021/12/05 19:26:51;;;;;;;15.60;10.80;;;;;;;;;;101058;1328;64886;-30
2021/12/05 19:29:22;;;;;;;13.40;10.10;;;;;;;;;;101025;1332;63989;-26
2021/12/05 19:31:53;;;;;;;15.20;10.30;;;;;;;;;;101229;1332;64098;-30
2021/12/05 19:34:24;;;;;;;19.50;10.60;;;;;;;;;;101060;1331;63979;-30
2021/12/05 19:36:51;;;;;;;15.10;10.60;;;;;;;;;;101057;1332;64166;-31
2021/12/05 19:39:24;;;;;;;14.40;9.70;;;;;;;;;;101228;1329;64206;-29
2021/12/05 19:41:54;;;;;;;13.90;10.20;;;;;;;;;;101131;1338;64029;-32
2021/12/05 19:44:22;;;;;;;16.40;11.30;;;;;;;;;;101202;1340;64078;-36
2021/12/05 19:46:52;;;;;;;15.40;10.30;;;;;;;;;;101226;1329;64008;-30
2021/12/05 19:49:22;;;;;;;14.50;10.10;;;;;;;;;;101218;1329;64001;-26
2021/12/05 19:51:49;;;;;;;12.20;9.30;;;;;;;;;;101211;1332;64008;-25
2021/12/05 19:54:17;;;;;;;13.00;10.30;;;;;;;;;;101185;1339;64109;-26
2021/12/05 19:56:47;;;;;;;14.40;10.70;;;;;;;;;;101229;1338;64065;-26
2021/12/05 19:59:19;;;;;;;13.90;10.30;;;;;;;;;;101193;1329;63987;-27
2021/12/05 20:01:52;;;;;;;14.10;10.60;;;;;;;;;;101184;1329;64087;-26
2021/12/05 20:04:20;;;;;;;13.20;10.50;;;;;;;;;;101211;1329;64163;-26
2021/12/05 20:06:50;;;;;;;15.30;10.20;;;;;;;;;;101129;1335;64046;-32
2021/12/05 20:09:18;;;;;;;14.80;10.10;;;;;;;;;;101107;1336;64110;-32